createdAt,value
2022-08-22T00:01:39.924Z,100.00
2022-08-22T00:02:54.722Z,100.00
2022-08-22T00:04:44.728Z,100.00
2022-08-22T00:07:35.618Z,100.00
2022-08-22T00:10:51.706Z,100.00
2022-08-22T00:13:32.246Z,100.00
2022-08-22T00:16:30.303Z,100.00
2022-08-22T00:19:02.742Z,100.00
2022-08-22T00:21:36.704Z,100.00
2022-08-22T00:24:27.352Z,100.00
2022-08-22T00:27:04.361Z,100.00
2022-08-22T00:29:47.437Z,100.00
2022-08-22T00:32:23.885Z,100.00
2022-08-22T00:35:02.415Z,100.00
2022-08-22T00:37:35.720Z,100.00
2022-08-22T00:40:27.005Z,100.00
2022-08-22T00:43:31.076Z,100.00
2022-08-22T00:46:21.489Z,100.00
2022-08-22T00:48:56.997Z,100.00
2022-08-22T00:52:08.630Z,100.00
2022-08-22T00:54:53.683Z,100.00
2022-08-22T00:57:54.462Z,100.00
2022-08-22T01:00:27.155Z,100.00
2022-08-22T01:03:02.667Z,100.00
2022-08-22T01:05:50.705Z,100.00
2022-08-22T01:08:50.363Z,100.00
2022-08-22T01:11:35.359Z,100.00
2022-08-22T01:14:37.163Z,100.00
2022-08-22T01:17:34.266Z,100.00
2022-08-22T01:20:28.520Z,100.00
2022-08-22T01:23:04.003Z,100.00
2022-08-22T01:25:46.837Z,100.00
2022-08-22T01:28:29.427Z,100.00
2022-08-22T01:34:25.291Z,100.00
2022-08-22T01:37:30.384Z,100.00
2022-08-22T01:40:53.428Z,100.00
2022-08-22T01:43:59.419Z,100.00
2022-08-22T01:46:28.561Z,100.00
2022-08-22T01:49:06.351Z,100.00
2022-08-22T01:52:11.196Z,100.00
2022-08-22T01:54:55.983Z,100.00
2022-08-22T01:57:24.464Z,100.00
2022-08-22T01:59:54.768Z,100.00
2022-08-22T02:02:27.509Z,100.00
2022-08-22T02:05:26.237Z,100.00
2022-08-22T02:08:17.643Z,100.00
2022-08-22T02:11:05.968Z,100.00
2022-08-22T02:14:00.202Z,100.00
2022-08-22T02:16:38.700Z,100.00
2022-08-22T02:19:14.013Z,100.00
2022-08-22T02:22:19.198Z,100.00
2022-08-22T02:25:09.829Z,100.00
2022-08-22T02:28:01.429Z,100.00
2022-08-22T02:30:43.943Z,100.00
2022-08-22T02:33:16.745Z,100.00
2022-08-22T02:35:59.904Z,100.00
2022-08-22T02:38:36.397Z,100.00
2022-08-22T02:41:35.016Z,100.00
2022-08-22T02:44:22.678Z,100.00
2022-08-22T02:47:03.674Z,100.00
2022-08-22T02:49:51.077Z,100.00
2022-08-22T02:52:50.250Z,100.00
2022-08-22T02:55:42.305Z,100.00
2022-08-22T02:58:23.130Z,100.00
2022-08-22T03:01:30.563Z,100.00
2022-08-22T03:04:21.967Z,100.00
2022-08-22T03:07:20.727Z,100.00
2022-08-22T03:10:10.235Z,100.00
2022-08-22T03:12:48.987Z,100.00
2022-08-22T03:15:32.887Z,100.00
2022-08-22T03:18:24.019Z,100.00
2022-08-22T03:21:12.309Z,100.00
2022-08-22T03:24:14.477Z,100.00
2022-08-22T03:26:50.722Z,100.00
2022-08-22T03:29:32.404Z,100.00
2022-08-22T03:32:19.369Z,100.00
2022-08-22T03:35:05.514Z,100.00
2022-08-22T03:37:42.848Z,100.00
2022-08-22T03:40:44.901Z,100.00
2022-08-22T03:43:23.206Z,100.00
2022-08-22T03:46:18.718Z,100.00
2022-08-22T03:48:54.596Z,100.00
2022-08-22T03:51:48.492Z,100.00
2022-08-22T03:54:37.171Z,100.00
2022-08-22T03:57:44.409Z,100.00
2022-08-22T04:01:06.808Z,100.00
2022-08-22T04:04:03.033Z,100.00
2022-08-22T04:06:50.518Z,100.00
2022-08-22T04:09:50.989Z,100.00
2022-08-22T04:12:42.764Z,100.00
2022-08-22T04:15:28.935Z,100.00
2022-08-22T04:18:29.402Z,100.00
2022-08-22T04:21:06.166Z,100.00
2022-08-22T04:23:40.404Z,100.00
2022-08-22T04:26:15.688Z,100.00
2022-08-22T04:28:49.294Z,100.00
2022-08-22T04:31:22.596Z,100.00
2022-08-22T04:33:57.516Z,100.00
2022-08-22T04:36:30.243Z,100.00
2022-08-22T04:39:02.259Z,100.00
2022-08-22T04:41:48.237Z,100.00
2022-08-22T04:44:27.247Z,100.00
2022-08-22T04:47:02.561Z,100.00
2022-08-22T04:49:35.122Z,100.00
2022-08-22T04:52:21.820Z,100.00
2022-08-22T04:55:10.909Z,100.00
2022-08-22T04:58:01.870Z,100.00
2022-08-22T05:00:57.002Z,100.00
2022-08-22T05:03:27.040Z,100.00
2022-08-22T05:05:55.653Z,100.00
2022-08-22T05:08:25.920Z,100.00
2022-08-22T05:10:53.704Z,100.00
2022-08-22T05:13:39.686Z,100.00
2022-08-22T05:16:12.753Z,100.00
2022-08-22T05:18:45.492Z,100.00
2022-08-22T05:21:14.444Z,100.00
2022-08-22T05:23:48.366Z,100.00
2022-08-22T05:26:17.825Z,100.00
2022-08-22T05:28:52.879Z,100.00
2022-08-22T05:31:28.896Z,100.00
2022-08-22T05:34:11.268Z,100.00
2022-08-22T05:36:45.939Z,100.00
2022-08-22T05:39:20.339Z,100.00
2022-08-22T05:41:49.364Z,100.00
2022-08-22T05:44:23.431Z,100.00
2022-08-22T05:46:56.274Z,100.00
2022-08-22T05:49:34.881Z,100.00
2022-08-22T05:52:39.855Z,100.00
2022-08-22T05:55:37.985Z,100.00
2022-08-22T05:58:44.346Z,100.00
2022-08-22T06:01:38.048Z,100.00
2022-08-22T06:04:13.727Z,100.00
2022-08-22T06:06:43.934Z,100.00
2022-08-22T06:09:22.790Z,100.00
2022-08-22T06:11:56.320Z,100.00
2022-08-22T06:14:39.853Z,100.00
2022-08-22T06:17:12.228Z,100.00
2022-08-22T06:19:51.286Z,100.00
2022-08-22T06:22:24.563Z,100.00
2022-08-22T06:24:54.201Z,100.00
2022-08-22T06:27:25.956Z,100.00
2022-08-22T06:30:00.565Z,100.00
2022-08-22T06:32:59.920Z,100.00
2022-08-22T06:35:30.372Z,100.00
2022-08-22T06:38:01.343Z,100.00
2022-08-22T06:40:29.557Z,100.00
2022-08-22T06:42:57.891Z,100.00
2022-08-22T06:45:31.722Z,100.00
2022-08-22T06:48:07.873Z,100.00
2022-08-22T06:50:43.631Z,100.00
2022-08-22T06:53:18.832Z,100.00
2022-08-22T06:55:53.013Z,100.00
2022-08-22T06:58:34.231Z,100.00
2022-08-22T07:01:11.759Z,100.00
2022-08-22T07:03:43.586Z,100.00
2022-08-22T07:06:15.967Z,100.00
2022-08-22T07:08:43.788Z,100.00
2022-08-22T07:11:27.551Z,100.00
2022-08-22T07:13:58.593Z,100.00
2022-08-22T07:16:57.414Z,100.00
2022-08-22T07:19:23.898Z,100.00
2022-08-22T07:21:50.510Z,100.00
2022-08-22T07:24:22.523Z,100.00
2022-08-22T07:27:05.877Z,100.00
2022-08-22T07:29:41.403Z,100.00
2022-08-22T07:32:13.755Z,100.00
2022-08-22T07:35:10.638Z,100.00
2022-08-22T07:37:55.486Z,100.00
2022-08-22T07:40:22.147Z,100.00
2022-08-22T07:43:09.356Z,100.00
2022-08-22T07:46:06.545Z,100.00
2022-08-22T07:48:53.390Z,100.00
2022-08-22T07:51:34.510Z,100.00
2022-08-22T07:54:06.796Z,100.00
2022-08-22T07:57:01.285Z,100.00
2022-08-22T07:59:30.787Z,100.00
2022-08-22T08:01:59.949Z,100.00
2022-08-22T08:04:38.102Z,100.00
2022-08-22T08:07:09.782Z,98.39
2022-08-22T08:09:44.602Z,96.16
2022-08-22T08:12:14.205Z,98.16
2022-08-22T08:14:44.140Z,94.70
2022-08-22T08:17:21.585Z,93.67
2022-08-22T08:19:50.699Z,93.24
2022-08-22T08:22:23.656Z,90.79
2022-08-22T08:24:51.540Z,92.01
2022-08-22T08:27:41.961Z,92.18
2022-08-22T08:30:16.102Z,85.62
2022-08-22T08:32:48.828Z,84.81
2022-08-22T08:35:23.790Z,84.39
2022-08-22T08:38:07.756Z,81.33
2022-08-22T08:40:34.181Z,83.01
2022-08-22T08:43:29.548Z,82.80
2022-08-22T08:45:59.207Z,78.61
2022-08-22T08:48:28.953Z,80.80
2022-08-22T08:51:02.056Z,77.78
2022-08-22T08:53:57.999Z,76.71
2022-08-22T08:56:35.461Z,76.21
2022-08-22T08:59:11.866Z,78.33
2022-08-22T09:02:23.468Z,78.44
2022-08-22T09:04:56.170Z,77.89
2022-08-22T09:07:50.147Z,75.31
2022-08-22T09:10:36.511Z,63.26
2022-08-22T09:13:40.821Z,63.15
2022-08-22T09:16:37.041Z,62.43
2022-08-22T09:19:34.714Z,62.49
2022-08-22T09:22:50.704Z,62.32
2022-08-22T09:25:39.881Z,59.31
2022-08-22T09:28:10.437Z,62.58
2022-08-22T09:31:16.935Z,61.25
2022-08-22T09:34:09.703Z,59.46
2022-08-22T09:36:41.982Z,61.16
2022-08-22T09:39:24.528Z,61.09
2022-08-22T09:42:24.046Z,60.63
2022-08-22T09:45:00.024Z,62.04
2022-08-22T09:47:35.112Z,60.07
2022-08-22T09:50:17.162Z,63.07
2022-08-22T09:53:07.492Z,60.86
2022-08-22T09:56:15.524Z,62.63
2022-08-22T09:58:51.442Z,62.97
2022-08-22T10:01:32.583Z,64.24
2022-08-22T10:04:34.408Z,64.96
2022-08-22T10:07:15.641Z,64.63
2022-08-22T10:10:04.056Z,62.97
2022-08-22T10:12:42.635Z,64.44
2022-08-22T10:15:31.737Z,62.94
2022-08-22T10:18:27.999Z,62.13
2022-08-22T10:21:15.846Z,62.46
2022-08-22T10:24:25.133Z,59.63
2022-08-22T10:27:01.421Z,62.25
2022-08-22T10:29:54.960Z,59.74
2022-08-22T10:32:27.019Z,57.45
2022-08-22T10:34:59.398Z,60.78
2022-08-22T10:37:39.582Z,57.43
2022-08-22T10:40:25.350Z,57.38
2022-08-22T10:42:57.710Z,54.58
2022-08-22T10:45:37.284Z,54.92
2022-08-22T10:48:07.318Z,54.57
2022-08-22T10:50:50.063Z,55.86
2022-08-22T10:53:30.229Z,59.00
2022-08-22T10:56:08.423Z,58.01
2022-08-22T10:58:41.870Z,61.31
2022-08-22T11:01:37.450Z,60.75
2022-08-22T11:04:40.183Z,63.76
2022-08-22T11:07:36.397Z,62.48
2022-08-22T11:10:27.339Z,60.56
2022-08-22T11:13:03.774Z,56.38
2022-08-22T11:15:48.601Z,59.21
2022-08-22T11:18:23.946Z,54.13
2022-08-22T11:21:22.266Z,52.39
2022-08-22T11:24:06.719Z,54.49
2022-08-22T11:26:54.076Z,56.56
2022-08-22T11:29:38.846Z,56.34
2022-08-22T11:32:34.936Z,54.32
2022-08-22T11:35:09.214Z,54.04
2022-08-22T11:38:16.023Z,55.03
2022-08-22T11:40:52.381Z,53.61
2022-08-22T11:43:48.321Z,54.57
2022-08-22T11:46:24.497Z,51.70
2022-08-22T11:49:10.758Z,53.02
2022-08-22T11:51:49.638Z,51.57
2022-08-22T11:54:45.151Z,50.44
2022-08-22T11:57:22.002Z,50.71
2022-08-22T12:00:15.627Z,50.05
2022-08-22T12:02:57.942Z,53.13
2022-08-22T12:05:32.340Z,53.42
2022-08-22T12:08:49.322Z,52.01
2022-08-22T12:11:28.117Z,53.52
2022-08-22T12:14:02.513Z,55.74
2022-08-22T12:16:36.139Z,54.01
2022-08-22T12:19:22.976Z,60.32
2022-08-22T12:22:08.053Z,58.57
2022-08-22T12:24:52.225Z,60.16
2022-08-22T12:27:39.303Z,59.36
2022-08-22T12:30:32.966Z,60.67
2022-08-22T12:33:28.059Z,58.24
2022-08-22T12:36:02.491Z,57.71
2022-08-22T12:38:49.526Z,57.05
2022-08-22T12:41:28.053Z,56.35
2022-08-22T12:44:17.132Z,55.33
2022-08-22T12:47:02.579Z,54.11
2022-08-22T12:49:55.015Z,54.89
2022-08-22T12:52:50.320Z,57.27
2022-08-22T12:55:55.531Z,58.82
2022-08-22T12:58:33.114Z,55.99
2022-08-22T13:01:06.263Z,54.38
2022-08-22T13:03:50.489Z,50.57
2022-08-22T13:06:35.255Z,50.77
2022-08-22T13:09:30.823Z,53.26
2022-08-22T13:12:06.155Z,54.29
2022-08-22T13:14:34.056Z,50.31
2022-08-22T13:17:23.766Z,52.00
2022-08-22T13:20:04.793Z,52.78
2022-08-22T13:22:34.954Z,52.80
2022-08-22T13:25:27.700Z,58.86
2022-08-22T13:28:01.479Z,56.91
2022-08-22T13:30:46.521Z,56.86
2022-08-22T13:33:27.966Z,57.77
2022-08-22T13:35:58.981Z,58.62
2022-08-22T13:38:48.214Z,58.19
2022-08-22T13:41:26.176Z,61.26
2022-08-22T13:44:08.625Z,61.83
2022-08-22T13:46:48.199Z,63.26
2022-08-22T13:49:37.509Z,63.16
2022-08-22T13:52:29.411Z,62.70
2022-08-22T13:55:12.420Z,61.79
2022-08-22T13:57:53.993Z,61.44
2022-08-22T14:00:32.684Z,62.14
2022-08-22T14:03:05.612Z,61.08
2022-08-22T14:05:49.336Z,59.87
2022-08-22T14:08:25.805Z,59.98
2022-08-22T14:11:20.956Z,60.26
2022-08-22T14:13:58.010Z,60.29
2022-08-22T14:16:24.537Z,57.47
2022-08-22T14:18:57.220Z,56.93
2022-08-22T14:21:40.146Z,58.18
2022-08-22T14:24:19.957Z,59.42
2022-08-22T14:27:05.293Z,58.56
2022-08-22T14:29:44.055Z,58.46
2022-08-22T14:32:26.794Z,56.98
2022-08-22T14:35:21.649Z,57.30
2022-08-22T14:37:55.097Z,56.80
2022-08-22T14:40:30.149Z,55.89
2022-08-22T14:43:06.331Z,56.22
2022-08-22T14:45:45.121Z,56.00
2022-08-22T14:48:30.301Z,56.82
2022-08-22T14:51:10.072Z,56.36
2022-08-22T14:53:40.409Z,57.33
2022-08-22T14:56:27.723Z,55.93
2022-08-22T14:59:01.547Z,56.99
2022-08-22T15:01:32.775Z,57.43
2022-08-22T15:04:02.560Z,57.93
2022-08-22T15:06:47.738Z,57.76
2022-08-22T15:09:37.843Z,57.31
2022-08-22T15:12:39.231Z,57.17
2022-08-22T15:15:13.096Z,58.35
2022-08-22T15:17:54.589Z,57.92
2022-08-22T15:20:35.223Z,57.82
2022-08-22T15:23:10.244Z,57.93
2022-08-22T15:25:41.152Z,58.28
2022-08-22T15:28:14.423Z,58.61
2022-08-22T15:31:10.481Z,57.69
2022-08-22T15:33:43.274Z,58.15
2022-08-22T15:36:21.663Z,59.40
2022-08-22T15:39:16.393Z,61.01
2022-08-22T15:41:48.346Z,60.58
2022-08-22T15:44:32.094Z,58.94
2022-08-22T15:47:23.733Z,61.88
2022-08-22T15:49:55.769Z,60.82
2022-08-22T15:52:31.828Z,61.67
2022-08-22T15:55:20.667Z,62.14
2022-08-22T15:58:12.927Z,62.78
2022-08-22T16:01:02.729Z,63.41
2022-08-22T16:03:33.321Z,63.25
2022-08-22T16:06:07.672Z,63.66
2022-08-22T16:08:36.916Z,63.38
2022-08-22T16:11:03.362Z,62.32
2022-08-22T16:13:29.935Z,63.02
2022-08-22T16:16:11.557Z,63.35
2022-08-22T16:18:39.344Z,64.01
2022-08-22T16:21:07.627Z,64.62
2022-08-22T16:23:46.299Z,64.30
2022-08-22T16:26:15.679Z,63.86
2022-08-22T16:29:03.442Z,63.72
2022-08-22T16:31:34.854Z,64.77
2022-08-22T16:34:16.939Z,65.76
2022-08-22T16:37:08.256Z,67.54
2022-08-22T16:39:45.897Z,67.15
2022-08-22T16:42:15.714Z,68.50
2022-08-22T16:44:46.705Z,69.37
2022-08-22T16:47:38.802Z,69.00
2022-08-22T16:50:23.057Z,68.59
2022-08-22T16:52:57.061Z,68.85
2022-08-22T16:55:29.901Z,67.75
2022-08-22T16:58:07.093Z,68.27
2022-08-22T17:00:36.961Z,70.32
2022-08-22T17:03:32.765Z,71.67
2022-08-22T17:06:45.339Z,71.11
2022-08-22T17:09:43.737Z,72.35
2022-08-22T17:12:30.542Z,73.10
2022-08-22T17:15:46.211Z,71.36
2022-08-22T17:18:31.911Z,72.15
2022-08-22T17:21:11.721Z,71.16
2022-08-22T17:23:50.177Z,72.00
2022-08-22T17:26:31.768Z,72.35
2022-08-22T17:29:01.687Z,74.14
2022-08-22T17:31:41.121Z,75.12
2022-08-22T17:34:32.917Z,77.36
2022-08-22T17:37:26.019Z,78.40
2022-08-22T17:40:03.317Z,78.14
2022-08-22T17:42:54.580Z,78.59
2022-08-22T17:45:40.235Z,79.06
2022-08-22T17:48:31.943Z,78.11
2022-08-22T17:51:25.317Z,80.05
2022-08-22T17:54:01.258Z,78.11
2022-08-22T17:56:54.027Z,79.97
2022-08-22T17:59:39.855Z,81.34
2022-08-22T18:02:17.082Z,80.35
2022-08-22T18:04:47.582Z,76.98
2022-08-22T18:07:14.213Z,75.70
2022-08-22T18:09:56.932Z,73.81
2022-08-22T18:12:34.360Z,73.94
2022-08-22T18:15:49.533Z,74.06
2022-08-22T18:18:29.966Z,74.16
2022-08-22T18:21:02.454Z,74.51
2022-08-22T18:23:40.129Z,74.84
2022-08-22T18:26:39.744Z,76.28
2022-08-22T18:29:16.822Z,75.52
2022-08-22T18:32:01.301Z,76.84
2022-08-22T18:34:44.249Z,76.78
2022-08-22T18:37:35.876Z,78.88
2022-08-22T18:40:23.052Z,78.11
2022-08-22T18:42:54.701Z,78.63
2022-08-22T18:45:46.044Z,79.91
2022-08-22T18:48:28.224Z,80.03
2022-08-22T18:51:23.980Z,80.48
2022-08-22T18:53:59.026Z,80.62
2022-08-22T18:56:34.074Z,80.32
2022-08-22T18:59:24.884Z,81.22
2022-08-22T19:02:16.892Z,83.20
2022-08-22T19:05:05.257Z,84.50
2022-08-22T19:08:02.475Z,86.04
2022-08-22T19:10:53.887Z,87.00
2022-08-22T19:13:26.587Z,88.50
2022-08-22T19:16:05.715Z,90.31
2022-08-22T19:18:44.872Z,91.58
2022-08-22T19:21:46.981Z,91.67
2022-08-22T19:24:19.507Z,93.40
2022-08-22T19:27:18.184Z,90.29
2022-08-22T19:29:44.648Z,91.46
2022-08-22T19:32:46.043Z,91.51
2022-08-22T19:35:20.505Z,89.36
2022-08-22T19:38:02.556Z,89.89
2022-08-22T19:40:51.496Z,92.33
2022-08-22T19:43:29.996Z,92.82
2022-08-22T19:45:58.896Z,93.36
2022-08-22T19:48:54.900Z,94.05
2022-08-22T19:51:21.409Z,93.62
2022-08-22T19:53:56.972Z,95.45
2022-08-22T19:56:31.247Z,94.97
2022-08-22T19:59:20.443Z,95.50
2022-08-22T20:02:01.958Z,95.08
2022-08-22T20:04:39.474Z,95.78
2022-08-22T20:07:21.279Z,94.97
2022-08-22T20:10:22.189Z,96.50
2022-08-22T20:13:18.521Z,96.02
2022-08-22T20:16:00.257Z,96.80
2022-08-22T20:18:51.980Z,95.81
2022-08-22T20:21:41.134Z,95.32
2022-08-22T20:24:13.752Z,95.28
2022-08-22T20:27:10.136Z,94.57
2022-08-22T20:29:37.265Z,95.02
2022-08-22T20:32:06.152Z,94.75
2022-08-22T20:34:37.909Z,94.02
2022-08-22T20:37:31.991Z,94.10
2022-08-22T20:40:14.742Z,93.66
2022-08-22T20:43:02.061Z,93.97
2022-08-22T20:45:47.365Z,93.67
2022-08-22T20:48:15.435Z,93.23
2022-08-22T20:50:42.050Z,94.20
2022-08-22T20:53:16.879Z,93.93
2022-08-22T20:55:52.417Z,94.30
2022-08-22T20:58:22.917Z,93.32
2022-08-22T21:00:53.537Z,94.70
2022-08-22T21:03:44.490Z,95.05
2022-08-22T21:06:15.378Z,95.06
2022-08-22T21:08:44.543Z,97.78
2022-08-22T21:11:38.921Z,96.83
2022-08-22T21:14:19.763Z,98.13
2022-08-22T21:16:46.375Z,98.40
2022-08-22T21:19:24.225Z,98.88
2022-08-22T21:21:50.780Z,100.00
2022-08-22T21:24:17.795Z,100.00
2022-08-22T21:27:00.932Z,100.00
2022-08-22T21:29:33.982Z,100.00
2022-08-22T21:32:15.435Z,100.00
2022-08-22T21:34:45.529Z,100.00
2022-08-22T21:37:16.862Z,100.00
2022-08-22T21:39:49.965Z,100.00
2022-08-22T21:42:22.426Z,100.00
2022-08-22T21:45:05.570Z,100.00
2022-08-22T21:47:37.639Z,100.00
2022-08-22T21:50:13.165Z,100.00
2022-08-22T21:52:59.697Z,100.00
2022-08-22T21:55:35.425Z,100.00
2022-08-22T21:58:35.594Z,100.00
2022-08-22T22:01:04.040Z,100.00
2022-08-22T22:03:37.479Z,100.00
2022-08-22T22:06:06.128Z,100.00
2022-08-22T22:08:33.431Z,100.00
2022-08-22T22:11:06.122Z,100.00
2022-08-22T22:13:34.998Z,100.00
2022-08-22T22:16:01.680Z,100.00
2022-08-22T22:18:33.429Z,100.00
2022-08-22T22:21:00.327Z,100.00
2022-08-22T22:23:27.876Z,100.00
2022-08-22T22:25:57.657Z,100.00
2022-08-22T22:28:30.100Z,100.00
2022-08-22T22:30:57.037Z,100.00
2022-08-22T22:33:26.929Z,100.00
2022-08-22T22:35:55.896Z,100.00
2022-08-22T22:38:24.308Z,100.00
2022-08-22T22:40:52.203Z,100.00
2022-08-22T22:43:18.923Z,100.00
2022-08-22T22:45:45.491Z,100.00
2022-08-22T22:48:12.197Z,100.00
2022-08-22T22:50:44.708Z,100.00
2022-08-22T22:53:11.935Z,100.00
2022-08-22T22:55:59.656Z,100.00
2022-08-22T22:58:26.486Z,100.00
2022-08-22T23:00:53.124Z,100.00
2022-08-22T23:03:19.641Z,100.00
2022-08-22T23:05:46.171Z,100.00
2022-08-22T23:08:12.855Z,100.00
2022-08-22T23:10:39.695Z,100.00
2022-08-22T23:13:06.560Z,100.00
2022-08-22T23:15:33.110Z,100.00
2022-08-22T23:17:59.682Z,100.00
2022-08-22T23:20:26.305Z,100.00
2022-08-22T23:22:52.899Z,100.00
2022-08-22T23:25:19.573Z,100.00
2022-08-22T23:27:49.591Z,100.00
2022-08-22T23:30:19.671Z,100.00
2022-08-22T23:32:46.231Z,100.00
2022-08-22T23:35:12.844Z,100.00
2022-08-22T23:37:39.517Z,100.00
2022-08-22T23:40:08.502Z,100.00
2022-08-22T23:42:35.425Z,100.00
2022-08-22T23:45:02.011Z,100.00
2022-08-22T23:47:28.600Z,100.00
2022-08-22T23:49:55.104Z,100.00
2022-08-22T23:52:21.755Z,100.00
2022-08-22T23:54:48.352Z,100.00
2022-08-22T23:57:20.951Z,100.00
2022-08-22T23:59:57.732Z,100.00
